createdAt,value
2019-02-06T00:02:11.984Z,96.30
2019-02-06T00:04:39.495Z,96.30
2019-02-06T00:07:07.083Z,96.20
2019-02-06T00:09:34.613Z,96.30
2019-02-06T00:12:02.201Z,96.30
2019-02-06T00:14:29.724Z,96.40
2019-02-06T00:16:57.678Z,96.40
2019-02-06T00:19:25.277Z,96.30
2019-02-06T00:21:52.811Z,96.40
2019-02-06T00:24:20.407Z,96.50
2019-02-06T00:26:47.974Z,96.50
2019-02-06T00:29:15.783Z,96.50
2019-02-06T00:31:43.211Z,96.40
2019-02-06T00:34:10.601Z,96.10
2019-02-06T00:36:38.100Z,96.20
2019-02-06T00:39:08.311Z,96.40
2019-02-06T00:41:35.851Z,96.30
2019-02-06T00:44:03.940Z,96.20
2019-02-06T00:46:32.171Z,96.10
2019-02-06T00:49:00.390Z,96.10
2019-02-06T00:51:28.213Z,96.00
2019-02-06T00:53:55.789Z,96.00
2019-02-06T00:56:24.167Z,96.00
2019-02-06T00:58:51.606Z,96.10
2019-02-06T01:01:19.097Z,95.80
2019-02-06T01:03:46.898Z,95.90
2019-02-06T01:06:14.303Z,95.90
2019-02-06T01:08:42.021Z,96.00
2019-02-06T01:11:09.483Z,96.00
2019-02-06T01:13:36.905Z,95.90
2019-02-06T01:16:04.725Z,95.70
2019-02-06T01:18:32.490Z,95.90
2019-02-06T01:20:59.938Z,96.00
2019-02-06T01:23:27.699Z,95.90
2019-02-06T01:25:55.345Z,95.90
2019-02-06T01:28:23.060Z,96.00
2019-02-06T01:30:57.563Z,95.90
2019-02-06T01:33:24.986Z,96.00
2019-02-06T01:35:52.520Z,96.10
2019-02-06T01:38:20.826Z,96.00
2019-02-06T01:40:48.260Z,95.90
2019-02-06T01:43:16.206Z,96.10
2019-02-06T01:45:44.071Z,96.00
2019-02-06T01:48:11.633Z,96.20
2019-02-06T01:50:40.267Z,96.00
2019-02-06T01:53:07.737Z,96.20
2019-02-06T01:55:35.184Z,96.30
2019-02-06T01:58:02.634Z,96.30
2019-02-06T02:00:30.121Z,96.20
2019-02-06T02:02:58.059Z,96.20
2019-02-06T02:05:25.518Z,96.20
2019-02-06T02:07:53.138Z,96.10
2019-02-06T02:10:21.246Z,96.60
2019-02-06T02:12:49.175Z,96.10
2019-02-06T02:15:16.985Z,95.90
2019-02-06T02:17:44.388Z,95.80
2019-02-06T02:20:14.613Z,95.60
2019-02-06T02:22:42.417Z,95.60
2019-02-06T02:25:09.890Z,95.60
2019-02-06T02:27:37.364Z,95.70
2019-02-06T02:30:07.543Z,95.70
2019-02-06T02:32:35.111Z,95.70
2019-02-06T02:35:03.611Z,95.70
2019-02-06T02:37:31.026Z,95.70
2019-02-06T02:39:58.599Z,95.60
2019-02-06T02:42:25.994Z,95.60
2019-02-06T02:44:53.395Z,95.70
2019-02-06T02:47:22.398Z,95.70
2019-02-06T02:49:49.803Z,95.80
2019-02-06T02:52:17.265Z,95.80
2019-02-06T02:54:44.669Z,95.90
2019-02-06T02:57:12.134Z,96.00
2019-02-06T02:59:39.558Z,96.00
2019-02-06T03:02:32.371Z,96.10
2019-02-06T03:05:05.066Z,96.10
2019-02-06T03:07:32.478Z,96.10
2019-02-06T03:10:00.015Z,96.10
2019-02-06T03:12:27.498Z,96.20
2019-02-06T03:14:55.399Z,96.10
2019-02-06T03:17:22.816Z,96.10
2019-02-06T03:19:50.246Z,96.00
2019-02-06T03:22:17.841Z,96.00
2019-02-06T03:24:45.347Z,95.90
2019-02-06T03:27:12.734Z,95.90
2019-02-06T03:29:40.130Z,95.90
2019-02-06T03:32:07.533Z,95.90
2019-02-06T03:34:35.040Z,95.90
2019-02-06T03:37:02.434Z,96.20
2019-02-06T03:39:30.534Z,96.00
2019-02-06T03:41:57.946Z,96.10
2019-02-06T03:44:25.439Z,96.20
2019-02-06T03:46:53.032Z,96.20
2019-02-06T03:49:20.551Z,96.20
2019-02-06T03:51:48.086Z,96.20
2019-02-06T03:54:15.587Z,96.20
2019-02-06T03:56:43.061Z,96.20
2019-02-06T03:59:10.580Z,96.30
2019-02-06T04:01:38.002Z,96.20
2019-02-06T04:04:05.430Z,96.20
2019-02-06T04:06:32.983Z,96.20
2019-02-06T04:09:00.469Z,96.20
2019-02-06T04:11:27.916Z,95.90
2019-02-06T04:13:55.267Z,95.60
2019-02-06T04:16:23.317Z,95.70
2019-02-06T04:18:50.891Z,95.60
2019-02-06T04:21:18.347Z,95.70
2019-02-06T04:23:45.707Z,95.70
2019-02-06T04:26:13.143Z,95.90
2019-02-06T04:28:40.559Z,96.20
2019-02-06T04:31:08.073Z,96.30
2019-02-06T04:33:36.039Z,96.30
2019-02-06T04:36:03.720Z,96.20
2019-02-06T04:38:31.120Z,96.10
2019-02-06T04:40:58.519Z,96.30
2019-02-06T04:43:26.264Z,96.30
2019-02-06T04:45:53.726Z,96.30
2019-02-06T04:48:21.148Z,96.30
2019-02-06T04:50:48.957Z,96.50
2019-02-06T04:53:16.683Z,96.50
2019-02-06T04:55:44.215Z,96.40
2019-02-06T04:58:11.611Z,96.40
2019-02-06T05:00:39.043Z,96.50
2019-02-06T05:03:06.500Z,96.30
2019-02-06T05:05:33.984Z,96.70
2019-02-06T05:08:01.454Z,96.20
2019-02-06T05:10:29.243Z,96.10
2019-02-06T05:12:56.764Z,96.20
2019-02-06T05:15:24.148Z,96.20
2019-02-06T05:17:51.613Z,96.40
2019-02-06T05:20:38.970Z,96.10
2019-02-06T05:23:07.438Z,96.00
2019-02-06T05:25:35.406Z,95.90
2019-02-06T05:28:02.852Z,95.80
2019-02-06T05:30:30.311Z,95.60
2019-02-06T05:32:57.734Z,95.60
2019-02-06T05:35:25.128Z,95.40
2019-02-06T05:37:52.751Z,95.20
2019-02-06T05:40:20.324Z,95.00
2019-02-06T05:42:47.869Z,94.90
2019-02-06T05:45:16.704Z,94.70
2019-02-06T05:47:44.262Z,94.80
2019-02-06T05:50:12.657Z,94.60
2019-02-06T05:52:40.123Z,94.60
2019-02-06T05:55:07.729Z,94.60
2019-02-06T05:57:35.276Z,94.60
2019-02-06T06:00:06.242Z,94.50
2019-02-06T06:02:33.848Z,94.50
2019-02-06T06:05:01.370Z,94.30
2019-02-06T06:07:28.855Z,94.30
2019-02-06T06:09:56.265Z,94.20
2019-02-06T06:12:23.758Z,94.00
2019-02-06T06:14:51.278Z,94.00
2019-02-06T06:17:20.484Z,93.90
2019-02-06T06:19:47.877Z,93.90
2019-02-06T06:22:16.080Z,93.80
2019-02-06T06:24:43.663Z,93.60
2019-02-06T06:27:12.731Z,93.40
2019-02-06T06:29:40.308Z,93.20
2019-02-06T06:32:07.775Z,93.00
2019-02-06T06:34:35.223Z,93.00
2019-02-06T06:37:02.985Z,92.80
2019-02-06T06:39:30.376Z,92.50
2019-02-06T06:41:57.831Z,92.40
2019-02-06T06:44:25.270Z,92.70
2019-02-06T06:46:52.946Z,92.30
2019-02-06T06:49:22.351Z,92.30
2019-02-06T06:51:49.784Z,92.20
2019-02-06T06:54:19.164Z,92.20
2019-02-06T06:56:46.689Z,92.10
2019-02-06T06:59:14.091Z,92.20
2019-02-06T07:01:41.501Z,92.20
2019-02-06T07:04:09.015Z,92.10
2019-02-06T07:06:36.467Z,92.00
2019-02-06T07:09:07.615Z,92.00
2019-02-06T07:11:35.151Z,92.00
2019-02-06T07:14:02.706Z,91.90
2019-02-06T07:16:31.202Z,91.80
2019-02-06T07:18:58.653Z,91.70
2019-02-06T07:21:27.434Z,91.60
2019-02-06T07:23:54.959Z,91.60
2019-02-06T07:26:22.364Z,91.50
2019-02-06T07:28:49.896Z,91.40
2019-02-06T07:31:19.541Z,91.20
2019-02-06T07:33:47.107Z,91.10
2019-02-06T07:36:14.655Z,91.10
2019-02-06T07:38:42.171Z,90.90
2019-02-06T07:41:10.066Z,90.80
2019-02-06T07:43:37.663Z,90.70
2019-02-06T07:46:05.072Z,90.50
2019-02-06T07:48:34.597Z,90.30
2019-02-06T07:51:02.941Z,90.20
2019-02-06T07:53:30.424Z,90.30
2019-02-06T07:55:58.227Z,90.40
2019-02-06T07:58:27.743Z,89.90
2019-02-06T08:00:55.437Z,90.10
2019-02-06T08:03:22.839Z,90.20
2019-02-06T08:05:50.271Z,90.00
2019-02-06T08:08:17.695Z,90.10
2019-02-06T08:10:45.238Z,90.40
2019-02-06T08:13:13.528Z,90.10
2019-02-06T08:15:41.058Z,89.30
2019-02-06T08:18:08.514Z,88.80
2019-02-06T08:20:36.507Z,89.20
2019-02-06T08:23:04.273Z,89.10
2019-02-06T08:25:32.365Z,88.90
2019-02-06T08:28:00.023Z,88.50
2019-02-06T08:30:30.235Z,87.90
2019-02-06T08:32:57.968Z,87.70
2019-02-06T08:35:25.499Z,87.20
2019-02-06T08:37:53.582Z,87.70
2019-02-06T08:40:22.243Z,87.50
2019-02-06T08:42:49.667Z,86.80
2019-02-06T08:45:17.759Z,86.20
2019-02-06T08:47:45.480Z,85.50
2019-02-06T08:50:13.454Z,84.60
2019-02-06T08:52:40.963Z,84.20
2019-02-06T08:55:11.103Z,83.70
2019-02-06T08:57:38.683Z,83.00
2019-02-06T09:00:07.817Z,81.70
2019-02-06T09:02:35.419Z,80.80
2019-02-06T09:05:03.624Z,80.50
2019-02-06T09:07:31.165Z,80.30
2019-02-06T09:09:58.727Z,80.50
2019-02-06T09:12:26.182Z,78.80
2019-02-06T09:14:53.758Z,76.90
2019-02-06T09:17:21.699Z,78.20
2019-02-06T09:19:49.253Z,78.40
2019-02-06T09:22:16.859Z,78.40
2019-02-06T09:24:44.502Z,77.70
2019-02-06T09:27:12.081Z,77.60
2019-02-06T09:29:41.315Z,77.60
2019-02-06T09:32:09.274Z,76.90
2019-02-06T09:34:36.722Z,77.00
2019-02-06T09:37:05.185Z,76.40
2019-02-06T09:39:33.964Z,76.80
2019-02-06T09:42:01.807Z,76.10
2019-02-06T09:44:29.268Z,75.10
2019-02-06T09:46:57.023Z,74.00
2019-02-06T09:49:24.467Z,74.30
2019-02-06T09:51:55.946Z,74.70
2019-02-06T09:54:23.417Z,74.00
2019-02-06T09:56:50.982Z,73.90
2019-02-06T09:59:19.037Z,71.30
2019-02-06T10:01:46.490Z,71.20
2019-02-06T10:04:14.906Z,69.50
2019-02-06T10:06:42.360Z,68.60
2019-02-06T10:09:09.806Z,68.70
2019-02-06T10:11:37.340Z,66.90
2019-02-06T10:14:07.319Z,65.70
2019-02-06T10:16:36.019Z,65.80
2019-02-06T10:19:04.049Z,63.90
2019-02-06T10:21:31.848Z,64.60
2019-02-06T10:23:59.444Z,63.50
2019-02-06T10:26:27.949Z,63.30
2019-02-06T10:28:56.068Z,60.30
2019-02-06T10:31:23.634Z,61.80
2019-02-06T10:33:51.598Z,61.20
2019-02-06T10:36:19.949Z,61.50
2019-02-06T10:38:47.502Z,60.40
2019-02-06T10:41:15.387Z,60.80
2019-02-06T10:43:43.830Z,59.50
2019-02-06T10:46:11.622Z,59.90
2019-02-06T10:48:39.079Z,59.30
2019-02-06T10:51:09.790Z,59.20
2019-02-06T10:53:37.324Z,59.30
2019-02-06T10:56:05.168Z,60.50
2019-02-06T10:58:33.155Z,59.70
2019-02-06T11:01:02.583Z,59.30
2019-02-06T11:03:30.115Z,59.20
2019-02-06T11:05:57.670Z,59.30
2019-02-06T11:08:26.721Z,59.40
2019-02-06T11:10:54.884Z,59.30
2019-02-06T11:13:22.714Z,59.10
2019-02-06T11:15:50.277Z,58.80
2019-02-06T11:18:19.760Z,58.40
2019-02-06T11:20:47.679Z,57.50
2019-02-06T11:23:17.096Z,58.00
2019-02-06T11:25:44.670Z,58.10
2019-02-06T11:28:12.994Z,58.10
2019-02-06T11:30:40.472Z,58.00
2019-02-06T11:33:08.172Z,57.50
2019-02-06T11:35:35.767Z,57.70
2019-02-06T11:38:05.392Z,56.80
2019-02-06T11:40:34.081Z,57.20
2019-02-06T11:43:01.640Z,57.10
2019-02-06T11:45:30.996Z,57.10
2019-02-06T11:47:59.002Z,56.20
2019-02-06T11:50:44.499Z,56.80
2019-02-06T11:53:17.571Z,56.50
2019-02-06T11:55:45.042Z,56.20
2019-02-06T11:58:12.416Z,56.90
2019-02-06T12:00:48.608Z,56.70
2019-02-06T12:03:16.725Z,56.90
2019-02-06T12:05:44.223Z,56.50
2019-02-06T12:08:12.578Z,56.80
2019-02-06T12:10:40.730Z,57.00
2019-02-06T12:13:08.735Z,56.80
2019-02-06T12:15:37.785Z,56.60
2019-02-06T12:18:07.171Z,56.20
2019-02-06T12:20:36.477Z,56.10
2019-02-06T12:23:04.108Z,56.50
2019-02-06T12:25:34.386Z,56.80
2019-02-06T12:28:00.937Z,57.10
2019-02-06T12:30:30.135Z,57.10
2019-02-06T12:32:57.898Z,57.40
2019-02-06T12:35:26.289Z,56.90
2019-02-06T12:37:54.227Z,57.60
2019-02-06T12:40:22.243Z,57.40
2019-02-06T12:42:49.798Z,57.80
2019-02-06T12:45:18.038Z,57.70
2019-02-06T12:47:47.319Z,57.60
2019-02-06T12:50:15.147Z,58.20
2019-02-06T12:52:42.723Z,58.20
2019-02-06T12:55:14.171Z,57.90
2019-02-06T12:57:41.606Z,57.60
2019-02-06T13:00:13.699Z,57.60
2019-02-06T13:02:43.750Z,57.60
2019-02-06T13:05:11.750Z,57.60
2019-02-06T13:07:39.184Z,57.20
2019-02-06T13:10:07.277Z,57.00
2019-02-06T13:12:34.752Z,57.00
2019-02-06T13:15:02.293Z,57.10
2019-02-06T13:17:29.864Z,56.60
2019-02-06T13:19:57.415Z,56.20
2019-02-06T13:22:25.271Z,56.00
2019-02-06T13:24:52.877Z,55.40
2019-02-06T13:27:21.399Z,55.50
2019-02-06T13:29:48.961Z,56.10
2019-02-06T13:32:16.465Z,55.60
2019-02-06T13:34:44.528Z,55.50
2019-02-06T13:37:12.295Z,55.10
2019-02-06T13:39:40.201Z,55.20
2019-02-06T13:42:07.678Z,55.40
2019-02-06T13:44:35.123Z,55.60
2019-02-06T13:47:02.724Z,55.60
2019-02-06T13:49:30.503Z,54.60
2019-02-06T13:51:57.939Z,55.30
2019-02-06T13:54:25.539Z,55.70
2019-02-06T13:56:53.156Z,56.20
2019-02-06T13:59:20.720Z,56.70
2019-02-06T14:01:48.152Z,55.90
2019-02-06T14:04:16.102Z,55.30
2019-02-06T14:06:43.585Z,55.40
2019-02-06T14:09:22.653Z,55.70
2019-02-06T14:11:47.038Z,55.90
2019-02-06T14:14:14.583Z,55.20
2019-02-06T14:16:43.041Z,55.10
2019-02-06T14:19:10.801Z,55.40
2019-02-06T14:21:38.376Z,55.30
2019-02-06T14:24:56.789Z,55.50
2019-02-06T14:27:54.851Z,55.30
2019-02-06T14:30:42.012Z,55.40
2019-02-06T14:33:49.022Z,55.20
2019-02-06T14:36:41.217Z,55.20
2019-02-06T14:39:15.474Z,55.60
2019-02-06T14:42:12.899Z,55.40
2019-02-06T14:45:31.269Z,56.20
2019-02-06T14:48:20.742Z,56.70
2019-02-06T14:51:16.290Z,56.60
2019-02-06T14:54:03.311Z,56.80
2019-02-06T14:56:57.061Z,56.40
2019-02-06T14:59:45.269Z,56.50
2019-02-06T15:02:50.505Z,56.00
2019-02-06T15:06:02.795Z,56.30
2019-02-06T15:08:48.375Z,56.60
2019-02-06T15:11:53.591Z,56.20
2019-02-06T15:14:57.711Z,57.20
2019-02-06T15:18:08.995Z,56.50
2019-02-06T15:20:50.460Z,57.30
2019-02-06T15:23:36.558Z,57.30
2019-02-06T15:27:10.683Z,57.50
2019-02-06T15:30:20.035Z,57.80
2019-02-06T15:33:38.619Z,57.20
2019-02-06T15:36:42.966Z,57.50
2019-02-06T15:39:39.257Z,57.50
2019-02-06T15:42:19.708Z,57.70
2019-02-06T15:45:28.469Z,57.50
2019-02-06T15:48:26.503Z,57.70
2019-02-06T15:51:19.601Z,57.50
2019-02-06T15:54:38.938Z,57.40
2019-02-06T15:57:57.777Z,57.30
2019-02-06T16:01:05.563Z,57.60
2019-02-06T16:04:29.239Z,57.10
2019-02-06T16:07:21.652Z,57.20
2019-02-06T16:10:13.583Z,56.70
2019-02-06T16:12:52.929Z,56.80
2019-02-06T16:15:52.462Z,56.60
2019-02-06T16:18:44.190Z,56.00
2019-02-06T16:21:31.121Z,56.20
2019-02-06T16:24:32.477Z,56.80
2019-02-06T16:27:38.167Z,57.00
2019-02-06T16:30:42.534Z,57.30
2019-02-06T16:33:42.942Z,56.90
2019-02-06T16:36:37.152Z,57.00
2019-02-06T16:39:53.238Z,57.10
2019-02-06T16:43:10.316Z,57.50
2019-02-06T16:46:18.535Z,57.10
2019-02-06T16:49:14.003Z,57.10
2019-02-06T16:52:11.464Z,57.80
2019-02-06T16:55:10.333Z,58.30
2019-02-06T16:58:17.143Z,59.00
2019-02-06T17:01:38.136Z,59.80
2019-02-06T17:04:30.958Z,60.50
2019-02-06T17:07:23.421Z,61.20
2019-02-06T17:10:55.906Z,60.80
2019-02-06T17:13:34.082Z,61.30
2019-02-06T17:16:40.346Z,61.80
2019-02-06T17:19:20.664Z,62.50
2019-02-06T17:22:44.522Z,62.50
2019-02-06T17:25:41.556Z,62.40
2019-02-06T17:28:59.062Z,62.70
2019-02-06T17:32:10.547Z,63.00
2019-02-06T17:35:01.127Z,63.10
2019-02-06T17:37:53.927Z,63.40
2019-02-06T17:40:43.109Z,63.30
2019-02-06T17:43:47.352Z,62.30
2019-02-06T17:46:58.766Z,60.70
2019-02-06T17:50:09.170Z,59.00
2019-02-06T17:53:29.192Z,58.80
2019-02-06T17:55:58.742Z,57.70
2019-02-06T17:58:35.283Z,57.30
2019-02-06T18:14:55.125Z,55.70
2019-02-06T18:17:22.982Z,56.30
2019-02-06T18:22:32.718Z,55.80
2019-02-06T18:25:00.591Z,56.40
2019-02-06T18:27:28.583Z,56.00
2019-02-06T18:29:56.909Z,56.00
2019-02-06T18:32:26.044Z,56.20
2019-02-06T18:34:54.072Z,56.40
2019-02-06T18:37:21.844Z,56.50
2019-02-06T18:39:51.216Z,56.50
2019-02-06T18:42:19.061Z,57.40
2019-02-06T18:44:47.926Z,57.60
2019-02-06T18:47:18.166Z,57.90
2019-02-06T18:49:49.184Z,57.40
2019-02-06T18:52:20.478Z,58.20
2019-02-06T18:54:48.567Z,57.50
2019-02-06T18:57:16.520Z,57.90
2019-02-06T18:59:44.424Z,58.30
2019-02-06T19:02:13.351Z,59.30
2019-02-06T19:04:41.158Z,59.00
2019-02-06T19:07:09.055Z,59.10
2019-02-06T19:09:37.315Z,59.20
2019-02-06T19:12:05.292Z,59.10
2019-02-06T19:14:33.059Z,58.90
2019-02-06T19:17:03.737Z,59.40
2019-02-06T19:19:32.761Z,59.40
2019-02-06T19:22:01.162Z,59.70
2019-02-06T19:24:29.034Z,59.80
2019-02-06T19:26:58.600Z,60.30
2019-02-06T19:29:26.557Z,60.60
2019-02-06T19:31:54.319Z,61.00
2019-02-06T19:34:22.095Z,60.90
2019-02-06T19:36:49.973Z,61.40
2019-02-06T19:39:17.753Z,61.50
2019-02-06T19:41:45.536Z,61.60
2019-02-06T19:44:13.265Z,61.90
2019-02-06T19:46:41.048Z,62.30
2019-02-06T19:49:09.106Z,62.60
2019-02-06T19:51:37.193Z,63.00
2019-02-06T19:54:04.963Z,63.30
2019-02-06T19:56:32.709Z,63.70
2019-02-06T19:59:00.724Z,64.00
2019-02-06T20:01:29.093Z,64.30
2019-02-06T20:03:57.240Z,64.80
2019-02-06T20:06:28.155Z,65.10
2019-02-06T20:09:04.420Z,65.50
2019-02-06T20:11:32.612Z,66.00
2019-02-06T20:14:01.642Z,66.20
2019-02-06T20:16:29.499Z,66.50
2019-02-06T20:18:57.292Z,66.40
2019-02-06T20:21:24.937Z,66.70
2019-02-06T20:23:52.623Z,66.90
2019-02-06T20:26:21.350Z,67.10
2019-02-06T20:28:49.118Z,67.10
2019-02-06T20:31:16.880Z,67.50
2019-02-06T20:33:44.554Z,67.20
2019-02-06T20:36:12.592Z,67.50
2019-02-06T20:38:40.290Z,67.70
2019-02-06T20:41:08.142Z,67.70
2019-02-06T20:43:35.855Z,67.90
2019-02-06T20:46:04.273Z,68.10
2019-02-06T20:48:32.247Z,68.40
2019-02-06T20:50:59.873Z,68.50
2019-02-06T20:53:27.938Z,68.40
2019-02-06T20:55:55.653Z,69.00
2019-02-06T20:58:23.426Z,69.50
2019-02-06T21:00:51.294Z,70.00
2019-02-06T21:03:18.960Z,70.40
2019-02-06T21:05:46.870Z,70.60
2019-02-06T21:08:14.604Z,70.90
2019-02-06T21:10:42.304Z,70.80
2019-02-06T21:13:10.299Z,71.40
2019-02-06T21:15:38.155Z,71.60
2019-02-06T21:18:05.857Z,72.00
2019-02-06T21:20:33.546Z,72.40
2019-02-06T21:23:01.875Z,72.90
2019-02-06T21:25:29.625Z,73.10
2019-02-06T21:27:57.693Z,73.60
2019-02-06T21:30:27.901Z,73.90
2019-02-06T21:32:55.651Z,73.80
2019-02-06T21:35:24.243Z,74.00
2019-02-06T21:37:52.033Z,74.00
2019-02-06T21:40:22.257Z,74.20
2019-02-06T21:42:50.514Z,74.30
2019-02-06T21:45:18.086Z,73.90
2019-02-06T21:47:46.241Z,73.90
2019-02-06T21:50:15.463Z,74.00
2019-02-06T21:55:24.589Z,74.10
2019-02-06T21:57:52.581Z,73.90
2019-02-06T22:00:25.490Z,74.10
2019-02-06T22:02:53.651Z,74.10
2019-02-06T22:05:21.404Z,74.10
2019-02-06T22:07:49.346Z,74.20
2019-02-06T22:10:17.539Z,73.80
2019-02-06T22:12:45.251Z,73.80
2019-02-06T22:15:15.765Z,74.00
2019-02-06T22:17:46.518Z,74.10
2019-02-06T22:20:14.698Z,74.40
2019-02-06T22:22:43.002Z,74.70
2019-02-06T22:25:11.037Z,75.10
2019-02-06T22:27:38.714Z,75.40
2019-02-06T22:30:10.209Z,75.30
2019-02-06T22:32:37.875Z,75.50
2019-02-06T22:35:06.071Z,75.90
2019-02-06T22:37:33.846Z,76.10
2019-02-06T22:40:01.608Z,76.40
2019-02-06T22:42:29.103Z,76.80
2019-02-06T22:44:56.700Z,77.40
2019-02-06T22:47:24.172Z,78.20
2019-02-06T22:49:51.848Z,78.30
2019-02-06T22:52:19.487Z,77.80
2019-02-06T22:54:47.458Z,77.50
2019-02-06T22:57:15.514Z,79.40
2019-02-06T22:59:43.071Z,77.30
2019-02-06T23:02:10.563Z,78.00
2019-02-06T23:04:38.150Z,77.00
2019-02-06T23:07:07.274Z,76.30
2019-02-06T23:09:34.974Z,75.90
2019-02-06T23:12:04.524Z,76.70
2019-02-06T23:14:32.160Z,79.60
2019-02-06T23:16:59.703Z,78.70
2019-02-06T23:19:27.268Z,78.50
2019-02-06T23:21:55.068Z,78.00
2019-02-06T23:24:24.519Z,78.10
2019-02-06T23:26:52.018Z,78.40
2019-02-06T23:29:20.132Z,77.80
2019-02-06T23:31:47.680Z,76.70
2019-02-06T23:34:15.260Z,75.20
2019-02-06T23:36:43.044Z,75.50
2019-02-06T23:39:16.196Z,74.50
2019-02-06T23:41:43.616Z,74.40
2019-02-06T23:44:11.596Z,73.70
2019-02-06T23:46:39.086Z,73.30
2019-02-06T23:49:06.779Z,73.70
2019-02-06T23:51:34.320Z,72.60
2019-02-06T23:54:02.050Z,72.40
2019-02-06T23:56:30.823Z,72.00
2019-02-06T23:58:58.678Z,71.90
